Time;durP1;ratioP1;P1;durP2;ratioP2;P2;SDS_P1;SDS_P2;PMS_P1;PMS_P2;Temp;Humidity;BMP_temperature;BMP_pressure;BME280_temperature;BME280_humidity;BME280_pressure;Samples;Min_cycle;Max_cycle;Signal;HPM_P1;HPM_P2
2024/01/19 00:01:34;;;;;;;;;;;-0.30;99.90;;;;;;5091415;28;20055;-63
2024/01/19 00:04:01;;;;;;;6.00;2.88;;;-0.20;99.90;;;;;;5090411;28;20363;-62
2024/01/19 00:06:27;;;;;;;4.75;2.40;;;-0.30;99.90;;;;;;5071833;28;20475;-64
2024/01/19 00:08:53;;;;;;;3.88;2.40;;;-0.20;99.90;;;;;;5090520;28;20052;-61
2024/01/19 00:11:19;;;;;;;;;;;-0.20;99.90;;;;;;5091069;28;20055;-62
2024/01/19 00:13:45;;;;;;;5.03;3.05;;;-0.20;99.90;;;;;;5072816;28;20044;-62
2024/01/19 00:16:12;;;;;;;;;;;-0.10;99.90;;;;;;5055032;28;20052;-61
2024/01/19 00:18:38;;;;;;;4.90;2.35;;;-0.20;99.90;;;;;;5069879;28;19920;-63
2024/01/19 00:21:04;;;;;;;5.15;2.67;;;-0.20;99.90;;;;;;5070209;28;20096;-62
2024/01/19 00:23:31;;;;;;;;;;;-0.30;99.90;;;;;;5070747;28;20060;-63
2024/01/19 00:25:57;;;;;;;5.07;2.40;;;-0.30;99.90;;;;;;5070860;28;19947;-62
2024/01/19 00:28:23;;;;;;;;;;;-0.40;99.90;;;;;;5070488;28;20052;-62
2024/01/19 00:30:49;;;;;;;4.88;2.50;;;-0.30;99.90;;;;;;5052998;28;19921;-62
2024/01/19 00:33:15;;;;;;;;;;;-0.30;99.90;;;;;;5070355;28;20331;-61
2024/01/19 00:35:42;;;;;;;4.13;3.45;;;-0.40;99.90;;;;;;5083123;28;19924;-62
2024/01/19 00:38:08;;;;;;;3.55;2.60;;;-0.30;99.90;;;;;;5071983;28;20128;-61
2024/01/19 00:40:34;;;;;;;;;;;-0.30;99.90;;;;;;5090854;28;20063;-62
2024/01/19 00:43:01;;;;;;;3.92;2.00;;;-0.40;99.90;;;;;;5090384;28;19934;-62
2024/01/19 00:45:27;;;;;;;7.55;2.58;;;-0.50;99.90;;;;;;5078873;28;20385;-62
2024/01/19 00:47:53;;;;;;;;;;;-0.50;99.90;;;;;;5055028;28;20410;-63
2024/01/19 00:50:20;;;;;;;6.30;2.78;;;-0.50;99.90;;;;;;5052453;28;19921;-62
2024/01/19 00:52:46;;;;;;;6.43;2.30;;;-0.50;99.90;;;;;;5052068;28;20048;-62
2024/01/19 00:55:12;;;;;;;;;;;-0.60;99.90;;;;;;5079279;28;20043;-63
2024/01/19 00:57:39;;;;;;;4.70;2.50;;;-0.60;99.90;;;;;;5089625;28;19981;-61
2024/01/19 01:00:06;;;;;;;4.35;2.33;;;-0.50;99.90;;;;;;5072004;28;20048;-61
2024/01/19 01:02:32;;;;;;;3.47;1.88;;;-0.50;99.90;;;;;;5089834;28;20052;-63
2024/01/19 01:04:58;;;;;;;3.53;2.28;;;-0.40;99.90;;;;;;5064948;28;20054;-62
2024/01/19 01:07:24;;;;;;;;;;;-0.50;99.90;;;;;;5052371;28;20056;-61
2024/01/19 01:09:51;;;;;;;5.13;2.03;;;-0.40;99.90;;;;;;5069882;28;19920;-63
2024/01/19 01:12:17;;;;;;;;;;;-0.40;99.90;;;;;;5072471;28;20453;-63
2024/01/19 01:14:43;;;;;;;3.25;1.80;;;-0.40;99.90;;;;;;5056289;28;19920;-61
2024/01/19 01:17:09;;;;;;;5.53;2.33;;;-0.50;99.90;;;;;;5055807;28;20129;-63
2024/01/19 01:19:36;;;;;;;;;;;-0.50;99.90;;;;;;5039863;28;20110;-61
2024/01/19 01:22:02;;;;;;;5.22;2.10;;;-0.40;99.90;;;;;;5073484;28;19924;-62
2024/01/19 01:24:28;;;;;;;4.55;2.22;;;-0.50;99.90;;;;;;5088064;28;20059;-63
2024/01/19 01:26:54;;;;;;;;;;;-0.60;99.90;;;;;;5055899;28;20446;-63
2024/01/19 01:29:20;;;;;;;6.55;2.60;;;-0.60;99.90;;;;;;5055807;28;19999;-63
2024/01/19 01:31:48;;;;;;;;;;;-0.70;99.90;;;;;;5056565;28;20432;-63
2024/01/19 01:34:15;;;;;;;4.75;2.42;;;-0.70;99.90;;;;;;5039432;28;19935;-63
2024/01/19 01:36:41;;;;;;;;;;;-0.60;99.90;;;;;;5056055;28;20118;-63
2024/01/19 01:39:11;;;;;;;5.63;3.13;;;-0.60;99.90;;;;;;5055285;28;19924;-61
2024/01/19 01:41:37;;;;;;;7.07;3.50;;;-0.70;99.90;;;;;;5073522;28;20064;-62
2024/01/19 01:44:04;;;;;;;6.40;3.13;;;-0.60;99.90;;;;;;5073386;28;20114;-62
2024/01/19 01:46:31;;;;;;;6.07;3.20;;;-0.70;99.90;;;;;;5074301;28;20056;-63
2024/01/19 01:48:57;;;;;;;;;;;-0.50;99.90;;;;;;5093401;28;20048;-62
2024/01/19 01:51:23;;;;;;;11.10;4.45;;;-0.60;99.90;;;;;;5075293;28;19939;-62
2024/01/19 01:53:50;;;;;;;8.60;3.22;;;-0.60;99.90;;;;;;5093103;28;20064;-62
2024/01/19 01:56:16;;;;;;;;;;;-0.50;99.90;;;;;;5058496;28;20449;-62
2024/01/19 01:58:43;;;;;;;4.85;2.88;;;-0.50;99.90;;;;;;5072789;28;19920;-62
2024/01/19 02:01:10;;;;;;;4.10;2.60;;;-0.40;99.90;;;;;;5055543;28;20147;-63
2024/01/19 02:03:37;;;;;;;7.07;2.97;;;-0.40;99.90;;;;;;5073473;28;20053;-63
2024/01/19 02:06:04;;;;;;;6.05;2.85;;;-0.30;99.90;;;;;;5070304;28;20044;-63
2024/01/19 02:08:30;;;;;;;6.72;3.50;;;-0.40;99.90;;;;;;5074613;28;20056;-62
2024/01/19 02:10:56;;;;;;;5.38;2.60;;;-0.20;99.90;;;;;;5058319;28;20051;-63
2024/01/19 02:13:23;;;;;;;;;;;-0.40;99.90;;;;;;5093510;28;20077;-62
2024/01/19 02:15:49;;;;;;;5.35;2.38;;;-0.30;99.90;;;;;;5078970;28;19931;-62
2024/01/19 02:18:15;;;;;;;;;;;-0.30;99.90;;;;;;5055294;28;20383;-63
2024/01/19 02:20:41;;;;;;;4.63;1.95;;;-0.40;99.90;;;;;;5072814;28;19931;-61
2024/01/19 02:23:12;;;;;;;;;;;-0.30;99.90;;;;;;5072397;28;20480;-63
2024/01/19 02:25:38;;;;;;;5.75;2.25;;;-0.50;99.90;;;;;;5055166;28;19939;-61
2024/01/19 02:28:05;;;;;;;6.57;2.63;;;-0.40;99.90;;;;;;5055019;28;20394;-63
2024/01/19 02:30:32;;;;;;;6.97;1.92;;;-0.40;99.90;;;;;;5054669;28;20056;-63
2024/01/19 02:32:59;;;;;;;3.72;2.00;;;-0.40;99.90;;;;;;5054929;28;20078;-62
2024/01/19 02:35:25;;;;;;;3.83;1.90;;;-0.30;99.90;;;;;;5064235;28;20483;-63
2024/01/19 02:37:51;;;;;;;;;;;-0.30;99.90;;;;;;5075252;28;20510;-63
2024/01/19 02:40:18;;;;;;;8.48;2.75;;;-0.30;99.90;;;;;;5092506;28;20334;-63
2024/01/19 02:42:44;;;;;;;6.80;2.42;;;-0.20;99.90;;;;;;5092377;28;20052;-62
2024/01/19 02:45:10;;;;;;;;;;;0.00;99.90;;;;;;5091625;28;20090;-62
2024/01/19 02:47:37;;;;;;;3.92;1.40;;;0.20;99.90;;;;;;5073762;28;20148;-63
2024/01/19 02:50:03;;;;;;;8.73;1.88;;;0.10;99.90;;;;;;5089177;28;20330;-63
2024/01/19 02:52:30;;;;;;;3.45;1.50;;;0.30;99.90;;;;;;5073898;28;20081;-62
2024/01/19 02:54:56;;;;;;;;;;;0.10;99.90;;;;;;5069263;28;20048;-62
2024/01/19 02:57:22;;;;;;;3.20;1.63;;;0.10;99.90;;;;;;5054216;28;19939;-62
2024/01/19 02:59:48;;;;;;;;;;;0.30;99.90;;;;;;5054823;28;20052;-63
2024/01/19 03:02:15;;;;;;;2.33;1.00;;;1.00;99.90;;;;;;5054540;28;19925;-62
2024/01/19 03:04:41;;;;;;;;;;;0.40;99.90;;;;;;5075970;28;20422;-62
2024/01/19 03:07:07;;;;;;;6.13;3.55;;;0.20;99.90;;;;;;5092082;28;19980;-63
2024/01/19 03:09:33;;;;;;;4.90;2.03;;;0.30;99.90;;;;;;5092596;28;20044;-62
2024/01/19 03:12:00;;;;;;;6.22;2.08;;;0.40;99.90;;;;;;5074644;28;20052;-62
2024/01/19 03:14:26;;;;;;;;;;;0.40;99.90;;;;;;5073794;28;20113;-62
2024/01/19 03:16:52;;;;;;;13.65;5.47;;;0.30;99.90;;;;;;5092283;28;19927;-62
2024/01/19 03:19:18;;;;;;;4.35;2.38;;;0.40;99.90;;;;;;5074032;28;20062;-62
2024/01/19 03:21:45;;;;;;;;;;;0.40;99.90;;;;;;5092525;28;20048;-62
2024/01/19 03:24:11;;;;;;;3.47;1.80;;;0.40;99.90;;;;;;5092488;28;20021;-62
2024/01/19 03:26:39;;;;;;;8.57;3.45;;;0.20;99.90;;;;;;5051151;28;20048;-61
2024/01/19 03:29:05;;;;;;;6.75;2.95;;;0.40;99.90;;;;;;5052122;28;20095;-61
2024/01/19 03:31:31;;;;;;;;;;;0.40;99.90;;;;;;5034850;28;20065;-62
2024/01/19 03:33:58;;;;;;;2.70;1.30;;;0.50;99.90;;;;;;5033588;28;20047;-62
2024/01/19 03:36:24;;;;;;;10.55;2.47;;;0.30;99.90;;;;;;5069309;28;20097;-62
2024/01/19 03:38:50;;;;;;;7.95;2.00;;;0.50;99.90;;;;;;5073778;28;20048;-62
2024/01/19 03:41:16;;;;;;;7.13;2.35;;;0.50;99.90;;;;;;5091820;28;20157;-61
2024/01/19 03:43:43;;;;;;;;;;;0.40;99.90;;;;;;5074261;28;20142;-61
2024/01/19 03:46:10;;;;;;;4.85;1.33;;;0.60;99.90;;;;;;5058539;28;19920;-62
2024/01/19 03:48:36;;;;;;;3.50;1.95;;;0.60;99.90;;;;;;5053964;28;20060;-62
2024/01/19 03:51:03;;;;;;;2.80;1.58;;;0.60;99.90;;;;;;5053960;28;20056;-62
2024/01/19 03:53:43;;;;;;;6.68;1.95;;;0.40;99.90;;;;;;5071706;28;20415;-61
2024/01/19 03:56:09;;;;;;;5.13;2.35;;;0.40;99.90;;;;;;5071683;28;20052;-61
2024/01/19 03:58:36;;;;;;;8.60;3.47;;;0.40;99.90;;;;;;5053833;28;20131;-62
2024/01/19 04:01:04;;;;;;;12.98;5.03;;;0.50;99.90;;;;;;5053421;28;20113;-63
2024/01/19 04:03:31;;;;;;;17.88;5.47;;;0.30;99.90;;;;;;5053793;28;20056;-62
2024/01/19 04:05:57;;;;;;;;;;;0.30;99.90;;;;;;5053772;28;20060;-61
2024/01/19 04:08:23;;;;;;;5.35;1.98;;;0.40;99.90;;;;;;5071340;28;19920;-62
2024/01/19 04:10:49;;;;;;;;;;;0.50;99.90;;;;;;5071591;28;20348;-62
2024/01/19 04:13:16;;;;;;;5.57;3.50;;;0.60;99.90;;;;;;5071279;28;19920;-60
2024/01/19 04:15:42;;;;;;;3.90;1.48;;;0.50;99.90;;;;;;5071193;28;20075;-62
2024/01/19 04:18:08;;;;;;;;;;;0.40;99.90;;;;;;5053745;28;20088;-62
2024/01/19 04:20:35;;;;;;;2.65;1.30;;;0.50;99.90;;;;;;5071322;28;19924;-63
2024/01/19 04:23:02;;;;;;;1.55;1.23;;;0.30;99.90;;;;;;5053142;28;20063;-62
2024/01/19 04:25:29;;;;;;;3.28;1.55;;;0.50;99.90;;;;;;5071109;28;20067;-62
2024/01/19 04:27:55;;;;;;;4.38;1.45;;;0.40;99.90;;;;;;5053363;28;20059;-63
2024/01/19 04:30:21;;;;;;;2.97;1.52;;;0.40;99.90;;;;;;5053433;28;20130;-62
2024/01/19 04:32:48;;;;;;;;;;;0.30;99.90;;;;;;5071203;28;20527;-62
2024/01/19 04:35:14;;;;;;;3.08;1.13;;;0.20;99.90;;;;;;5052924;28;20349;-61
2024/01/19 04:37:40;;;;;;;1.98;1.10;;;0.10;99.90;;;;;;5053035;28;20067;-61
2024/01/19 04:40:07;;;;;;;;;;;0.10;99.90;;;;;;5071398;28;20377;-61
2024/01/19 04:42:33;;;;;;;2.95;1.90;;;-0.10;99.90;;;;;;5053118;28;19920;-63
2024/01/19 04:44:59;;;;;;;;;;;0.00;99.90;;;;;;5052770;28;20056;-63
2024/01/19 04:47:25;;;;;;;2.95;1.10;;;-0.20;99.90;;;;;;5055547;28;20272;-62
2024/01/19 04:49:51;;;;;;;;;;;-0.30;99.90;;;;;;5091514;28;20044;-63
2024/01/19 04:52:18;;;;;;;1.85;1.08;;;-0.20;99.90;;;;;;5090895;28;20267;-61
2024/01/19 04:54:44;;;;;;;;;;;-0.30;99.90;;;;;;5087508;28;20063;-62
2024/01/19 04:57:10;;;;;;;3.33;1.60;;;-0.20;99.90;;;;;;5073379;28;19928;-62
2024/01/19 04:59:36;;;;;;;4.45;1.33;;;-0.30;99.90;;;;;;5070727;28;20060;-63
2024/01/19 05:02:03;;;;;;;;;;;-0.30;99.90;;;;;;5053362;28;20051;-61
2024/01/19 05:04:29;;;;;;;2.85;1.02;;;-0.10;99.90;;;;;;5071517;28;19924;-62
2024/01/19 05:06:55;;;;;;;;;;;-0.20;99.90;;;;;;5090816;28;20376;-63
2024/01/19 05:09:22;;;;;;;1.42;1.10;;;-0.10;99.90;;;;;;5073016;28;19998;-61
2024/01/19 05:11:48;;;;;;;;;;;-0.10;99.90;;;;;;5073141;28;20048;-63
2024/01/19 05:14:14;;;;;;;1.15;1.05;;;0.10;99.90;;;;;;5073117;28;20280;-63
2024/01/19 05:16:40;;;;;;;;;;;-0.10;99.90;;;;;;5072854;28;20063;-62
2024/01/19 05:19:07;;;;;;;1.55;1.00;;;-0.10;99.90;;;;;;5091125;28;19928;-63
2024/01/19 05:21:33;;;;;;;2.95;1.00;;;0.00;99.90;;;;;;5073267;28;20086;-61
2024/01/19 05:23:59;;;;;;;;;;;0.00;99.90;;;;;;5091617;28;20063;-62
2024/01/19 05:26:25;;;;;;;2.35;1.00;;;0.00;99.90;;;;;;5072389;28;19920;-61
2024/01/19 05:28:52;;;;;;;1.63;1.45;;;0.00;99.90;;;;;;5091202;28;20174;-62
2024/01/19 05:31:18;;;;;;;;;;;0.00;99.90;;;;;;5091588;28;20044;-62
2024/01/19 05:33:44;;;;;;;4.90;2.42;;;-0.10;99.90;;;;;;5073440;28;19920;-61
2024/01/19 05:36:10;;;;;;;;;;;0.00;99.90;;;;;;5073384;28;20044;-61
2024/01/19 05:38:37;;;;;;;11.02;2.35;;;-0.30;99.90;;;;;;5091124;28;19920;-62
2024/01/19 05:41:03;;;;;;;21.80;5.97;;;-0.30;99.90;;;;;;5073020;28;20048;-61
2024/01/19 05:43:30;;;;;;;16.92;4.93;;;-0.40;99.90;;;;;;5091063;28;20056;-62
2024/01/19 05:45:56;;;;;;;14.48;4.65;;;-0.30;99.90;;;;;;5077710;28;20059;-63
2024/01/19 05:48:24;;;;;;;18.70;4.72;;;-0.40;99.90;;;;;;5052932;28;20063;-62
2024/01/19 05:50:50;;;;;;;7.78;3.22;;;-0.40;99.90;;;;;;5052551;28;20052;-62
2024/01/19 05:53:16;;;;;;;9.25;3.85;;;-0.40;99.90;;;;;;5052252;28;20121;-61
2024/01/19 05:55:43;;;;;;;11.07;2.47;;;-0.60;99.90;;;;;;5052497;28;20063;-62
2024/01/19 05:58:09;;;;;;;;;;;-0.60;99.90;;;;;;5072121;28;20044;-61
2024/01/19 06:00:35;;;;;;;12.45;3.85;;;-0.70;99.90;;;;;;5074048;28;20340;-62
2024/01/19 06:03:01;;;;;;;;;;;-0.70;99.90;;;;;;5075974;28;20040;-62
2024/01/19 06:05:28;;;;;;;18.08;6.28;;;-0.70;99.90;;;;;;5073370;28;20332;-62
2024/01/19 06:07:54;;;;;;;;;;;-0.60;99.90;;;;;;5074299;28;20044;-62
2024/01/19 06:10:20;;;;;;;8.00;3.00;;;-0.60;99.90;;;;;;5077868;28;19974;-62
2024/01/19 06:12:46;;;;;;;;;;;-0.60;99.90;;;;;;5074361;28;20048;-63
2024/01/19 06:15:13;;;;;;;7.00;2.90;;;-0.60;99.90;;;;;;5055630;28;19931;-62
2024/01/19 06:17:39;;;;;;;4.68;1.60;;;-0.60;99.90;;;;;;5055883;28;20068;-61
2024/01/19 06:20:05;;;;;;;4.30;2.08;;;-0.60;99.90;;;;;;5073718;28;20044;-60
2024/01/19 06:22:32;;;;;;;3.47;1.33;;;-0.60;99.90;;;;;;5072987;28;20445;-62
2024/01/19 06:24:58;;;;;;;;;;;-0.60;99.90;;;;;;5073689;28;20059;-62
2024/01/19 06:27:24;;;;;;;2.80;1.27;;;-0.80;99.90;;;;;;5058034;28;19920;-63
2024/01/19 06:29:50;;;;;;;;;;;-0.70;99.90;;;;;;5073970;28;20036;-62
2024/01/19 06:32:17;;;;;;;3.53;1.63;;;-0.90;99.90;;;;;;5072599;28;19934;-62
2024/01/19 06:34:44;;;;;;;3.65;1.48;;;-0.80;99.90;;;;;;5072758;28;20106;-62
2024/01/19 06:37:10;;;;;;;4.60;1.77;;;-0.80;99.90;;;;;;5055343;28;20060;-62
2024/01/19 06:39:36;;;;;;;2.08;1.27;;;-0.80;99.90;;;;;;5073229;28;20052;-61
2024/01/19 06:42:04;;;;;;;3.38;1.80;;;-1.00;99.90;;;;;;5055525;28;20133;-62
2024/01/19 06:44:30;;;;;;;2.90;1.88;;;-0.90;99.90;;;;;;5055333;28;20481;-61
2024/01/19 06:46:56;;;;;;;2.28;1.42;;;-0.90;99.90;;;;;;5071783;28;20079;-63
2024/01/19 06:49:22;;;;;;;;;;;-0.90;99.90;;;;;;5054488;28;20048;-63
2024/01/19 06:51:50;;;;;;;3.13;1.20;;;-1.10;99.90;;;;;;5053455;28;19924;-64
2024/01/19 06:54:16;;;;;;;;;;;-1.00;99.90;;;;;;5071344;28;20578;-63
2024/01/19 06:56:43;;;;;;;2.70;1.30;;;-1.00;99.90;;;;;;5070557;28;19931;-62
2024/01/19 06:59:09;;;;;;;3.53;1.42;;;-0.90;99.90;;;;;;5070459;28;20075;-62
2024/01/19 07:01:38;;;;;;;3.35;1.33;;;-0.80;99.90;;;;;;5051068;28;20483;-63
2024/01/19 07:04:04;;;;;;;2.55;1.27;;;-0.90;99.90;;;;;;5071281;28;20071;-62
2024/01/19 07:06:32;;;;;;;2.35;1.20;;;-0.90;99.90;;;;;;5070466;28;20051;-64
2024/01/19 07:08:59;;;;;;;2.25;1.40;;;-0.80;99.90;;;;;;5050009;28;20056;-63
2024/01/19 07:11:26;;;;;;;5.70;2.13;;;-0.70;99.90;;;;;;5067349;28;20619;-63
2024/01/19 07:13:52;;;;;;;;;;;-0.70;99.90;;;;;;5051028;28;20052;-64
2024/01/19 07:16:18;;;;;;;3.75;2.10;;;-0.70;99.90;;;;;;5043865;28;20380;-63
2024/01/19 07:18:45;;;;;;;;;;;-0.70;99.90;;;;;;5050386;28;20056;-64
2024/01/19 07:21:11;;;;;;;3.80;2.00;;;-0.50;99.90;;;;;;5051464;28;19994;-64
2024/01/19 07:23:38;;;;;;;3.38;1.73;;;-0.60;99.90;;;;;;5053402;28;20067;-63
2024/01/19 07:26:04;;;;;;;;;;;-0.50;99.90;;;;;;5053041;28;20060;-62
2024/01/19 07:28:30;;;;;;;3.50;2.20;;;-0.60;99.90;;;;;;5051766;28;19947;-64
2024/01/19 07:30:56;;;;;;;;;;;-0.50;99.90;;;;;;5053797;28;20044;-63
2024/01/19 07:33:24;;;;;;;3.35;1.73;;;-0.50;99.90;;;;;;5052486;28;19924;-63
2024/01/19 07:35:50;;;;;;;2.63;2.05;;;-0.50;99.90;;;;;;5036437;28;20052;-64
2024/01/19 07:38:16;;;;;;;4.18;2.53;;;-0.60;99.90;;;;;;5052195;28;20055;-63
2024/01/19 07:40:42;;;;;;;;;;;-0.50;99.90;;;;;;5053084;28;20052;-63
2024/01/19 07:43:09;;;;;;;3.95;1.98;;;-0.70;99.90;;;;;;5070264;28;19951;-63
2024/01/19 07:45:35;;;;;;;2.53;2.30;;;-0.70;99.90;;;;;;5052572;28;20048;-64
2024/01/19 07:48:01;;;;;;;;;;;-0.80;99.90;;;;;;5052505;28;20440;-63
2024/01/19 07:50:28;;;;;;;4.18;1.80;;;-0.70;99.90;;;;;;5084650;28;19921;-64
2024/01/19 07:52:54;;;;;;;4.25;2.50;;;-0.70;99.90;;;;;;5051634;28;20056;-63
2024/01/19 07:55:20;;;;;;;;;;;-0.80;99.90;;;;;;5051376;28;20113;-64
2024/01/19 07:57:46;;;;;;;3.08;1.70;;;-0.70;99.90;;;;;;5050613;28;19997;-63
2024/01/19 08:00:13;;;;;;;;;;;-0.90;99.90;;;;;;5051146;28;20063;-63
2024/01/19 08:02:40;;;;;;;2.72;1.83;;;-1.00;99.90;;;;;;5051864;28;20443;-63
2024/01/19 08:05:06;;;;;;;4.57;1.77;;;-0.80;99.90;;;;;;5050787;28;20040;-63
2024/01/19 08:07:32;;;;;;;;;;;-0.90;99.90;;;;;;5051800;28;20052;-64
2024/01/19 08:09:59;;;;;;;3.08;2.45;;;-1.00;99.90;;;;;;5030217;28;19929;-63
2024/01/19 08:12:25;;;;;;;;;;;-0.90;99.90;;;;;;5052942;28;20052;-63
2024/01/19 08:14:52;;;;;;;5.35;2.55;;;-0.90;99.90;;;;;;5035287;28;20311;-63
2024/01/19 08:17:18;;;;;;;4.90;2.97;;;-0.80;99.90;;;;;;5035496;28;20059;-63
2024/01/19 08:19:45;;;;;;;6.22;2.50;;;-0.80;99.90;;;;;;5051097;28;20048;-63
2024/01/19 08:22:12;;;;;;;6.43;2.88;;;-0.80;99.90;;;;;;5051617;28;20061;-64
2024/01/19 08:24:38;;;;;;;5.95;2.60;;;-0.90;99.90;;;;;;5051660;28;20056;-63
2024/01/19 08:27:05;;;;;;;;;;;-0.80;99.90;;;;;;5052199;28;20060;-63
2024/01/19 08:29:33;;;;;;;5.10;3.00;;;-0.80;99.90;;;;;;5051151;28;19982;-63
2024/01/19 08:31:59;;;;;;;5.32;2.85;;;-0.80;99.90;;;;;;5051491;28;20052;-63
2024/01/19 08:34:27;;;;;;;4.53;3.22;;;-0.70;99.90;;;;;;5068696;28;20041;-64
2024/01/19 08:36:53;;;;;;;4.70;2.80;;;-0.80;99.90;;;;;;5035298;28;20060;-64
2024/01/19 08:39:20;;;;;;;;;;;-0.70;99.90;;;;;;5035010;28;20055;-63
2024/01/19 08:41:47;;;;;;;8.40;3.80;;;-0.60;99.90;;;;;;5050610;28;19978;-63
2024/01/19 08:44:14;;;;;;;5.65;3.40;;;-0.60;99.90;;;;;;5050154;28;20089;-63
2024/01/19 08:46:44;;;;;;;8.02;3.63;;;-0.50;99.90;;;;;;5048750;28;20052;-63
2024/01/19 08:49:11;;;;;;;6.53;4.25;;;-0.50;99.90;;;;;;5034234;28;20330;-64
2024/01/19 08:51:38;;;;;;;5.95;4.18;;;-0.50;99.90;;;;;;5034622;28;20045;-63
2024/01/19 08:54:05;;;;;;;6.65;4.18;;;-0.30;99.90;;;;;;5051344;28;20442;-63
2024/01/19 08:56:31;;;;;;;7.20;3.78;;;-0.40;99.90;;;;;;5051395;28;20040;-64
2024/01/19 08:58:58;;;;;;;6.60;5.03;;;-0.30;99.90;;;;;;5050962;28;20365;-63
2024/01/19 09:01:24;;;;;;;6.90;4.70;;;-0.10;99.90;;;;;;5051630;28;20052;-62
2024/01/19 09:03:50;;;;;;;7.88;4.82;;;0.00;99.90;;;;;;5051327;28;20060;-63
2024/01/19 09:06:16;;;;;;;;;;;-0.10;99.90;;;;;;5051165;28;20056;-63
2024/01/19 09:08:43;;;;;;;7.30;3.97;;;-0.10;99.90;;;;;;5049803;28;19920;-64
2024/01/19 09:11:11;;;;;;;6.35;3.78;;;-0.10;99.90;;;;;;5064023;28;20045;-64
2024/01/19 09:13:38;;;;;;;9.65;4.82;;;-0.20;99.90;;;;;;5048213;28;20053;-63
2024/01/19 09:16:08;;;;;;;8.77;4.10;;;0.00;99.90;;;;;;5085468;28;20068;-63
2024/01/19 09:18:36;;;;;;;7.50;3.97;;;0.00;99.90;;;;;;5067253;28;20045;-62
2024/01/19 09:21:03;;;;;;;7.22;4.00;;;0.00;99.90;;;;;;5051046;28;20052;-63
2024/01/19 09:23:29;;;;;;;6.32;3.55;;;0.10;99.90;;;;;;5069172;28;20052;-65
2024/01/19 09:25:56;;;;;;;5.38;3.72;;;0.00;99.90;;;;;;5051174;28;20115;-64
2024/01/19 09:28:22;;;;;;;5.80;4.20;;;0.10;99.90;;;;;;5050562;28;20064;-64
2024/01/19 09:30:49;;;;;;;6.95;4.68;;;0.10;99.90;;;;;;5051334;28;20052;-65
2024/01/19 09:33:16;;;;;;;5.65;3.83;;;0.10;99.90;;;;;;5053424;28;20044;-63
2024/01/19 09:35:42;;;;;;;5.65;4.38;;;0.20;99.90;;;;;;5055060;28;20087;-64
2024/01/19 09:38:09;;;;;;;7.07;4.25;;;0.40;99.90;;;;;;5054499;28;20483;-63
2024/01/19 09:40:35;;;;;;;6.28;3.55;;;0.50;99.90;;;;;;5055202;28;20061;-63
2024/01/19 09:43:01;;;;;;;7.72;4.15;;;0.50;99.90;;;;;;5038214;28;20060;-64
2024/01/19 09:45:38;;;;;;;6.35;3.22;;;0.40;99.90;;;;;;5054524;28;20052;-63
2024/01/19 09:48:23;;;;;;;5.57;4.00;;;0.60;99.90;;;;;;5054195;28;20048;-64
2024/01/19 09:50:55;;;;;;;4.22;3.55;;;0.60;99.90;;;;;;5054557;28;20098;-65
2024/01/19 09:53:27;;;;;;;6.40;4.28;;;0.60;99.90;;;;;;5072520;28;20191;-63
2024/01/19 09:55:53;;;;;;;7.88;3.42;;;0.80;99.90;;;;;;5053895;28;20045;-64
2024/01/19 09:58:21;;;;;;;6.93;4.50;;;0.80;99.90;;;;;;5054539;28;20325;-64
2024/01/19 10:00:48;;;;;;;7.22;3.70;;;0.80;99.90;;;;;;5037971;28;20052;-64
2024/01/19 10:03:17;;;;;;;6.90;3.95;;;0.80;99.90;;;;;;5055140;28;20052;-64
2024/01/19 10:05:43;;;;;;;10.95;3.33;;;1.00;99.90;;;;;;5037456;28;20340;-64
2024/01/19 10:08:12;;;;;;;5.78;3.65;;;1.10;99.90;;;;;;5064907;28;20047;-64
2024/01/19 10:10:42;;;;;;;4.80;3.20;;;1.00;99.90;;;;;;5051837;28;20044;-64
2024/01/19 10:13:10;;;;;;;7.20;3.08;;;0.90;99.90;;;;;;5058676;28;20411;-64
2024/01/19 10:15:36;;;;;;;8.85;3.25;;;1.00;99.90;;;;;;5052635;28;20033;-63
2024/01/19 10:18:05;;;;;;;9.02;3.40;;;0.90;99.90;;;;;;5051266;28;20451;-65
2024/01/19 10:20:32;;;;;;;6.50;3.60;;;0.90;99.90;;;;;;5053665;28;20060;-64
2024/01/19 10:23:19;;;;;;;7.35;3.60;;;0.90;99.90;;;;;;5036869;28;20060;-64
2024/01/19 10:25:45;;;;;;;8.23;4.32;;;1.20;99.90;;;;;;5053137;28;20044;-64
2024/01/19 10:28:33;;;;;;;3.70;3.28;;;1.30;99.90;;;;;;5053328;28;20072;-64
2024/01/19 10:31:21;;;;;;;8.07;3.33;;;1.30;99.90;;;;;;5054323;28;20056;-64
2024/01/19 10:33:51;;;;;;;5.53;2.55;;;1.40;99.90;;;;;;5076228;28;20053;-64
2024/01/19 10:36:18;;;;;;;6.32;3.40;;;1.60;99.90;;;;;;5064046;28;20044;-64
2024/01/19 10:38:45;;;;;;;8.65;3.78;;;1.50;99.90;;;;;;5036369;28;20125;-65
2024/01/19 10:41:16;;;;;;;7.53;4.35;;;1.50;99.90;;;;;;5053653;28;20060;-65
2024/01/19 10:43:42;;;;;;;8.50;3.65;;;1.50;99.90;;;;;;5073648;28;20276;-65
2024/01/19 10:46:26;;;;;;;7.90;4.15;;;1.70;99.90;;;;;;5061213;28;20045;-64
2024/01/19 10:48:52;;;;;;;7.68;3.75;;;1.60;99.90;;;;;;5068308;28;20467;-65
2024/01/19 10:51:20;;;;;;;5.50;3.92;;;1.80;99.90;;;;;;5073413;28;20048;-65
2024/01/19 10:53:49;;;;;;;7.22;3.60;;;1.80;99.90;;;;;;5074078;28;20443;-65
2024/01/19 10:56:21;;;;;;;8.15;3.13;;;1.70;99.90;;;;;;5073330;28;20044;-63
2024/01/19 10:58:48;;;;;;;4.40;3.30;;;1.90;99.90;;;;;;5073172;28;20044;-64
2024/01/19 11:01:16;;;;;;;9.18;3.40;;;1.90;99.90;;;;;;5073631;28;20048;-64
2024/01/19 11:03:43;;;;;;;8.45;3.25;;;1.90;99.90;;;;;;5075834;28;20434;-65
2024/01/19 11:06:10;;;;;;;5.20;2.85;;;2.00;99.90;;;;;;5073265;28;20058;-64
2024/01/19 11:08:37;;;;;;;7.32;3.40;;;1.90;99.90;;;;;;5056403;28;20044;-64
2024/01/19 11:11:05;;;;;;;6.97;3.38;;;2.00;99.90;;;;;;5073350;28;20045;-64
2024/01/19 11:13:38;;;;;;;5.25;3.35;;;1.90;99.90;;;;;;5073216;28;20063;-64
2024/01/19 11:16:11;;;;;;;8.70;3.63;;;2.00;99.90;;;;;;5073071;28;20052;-63
2024/01/19 11:18:38;;;;;;;5.45;3.33;;;1.80;99.90;;;;;;5072935;28;20043;-63
2024/01/19 11:21:06;;;;;;;6.78;3.47;;;1.90;99.90;;;;;;5056735;28;20048;-64
2024/01/19 11:23:34;;;;;;;7.05;3.92;;;1.90;99.90;;;;;;5073282;28;20062;-64
2024/01/19 11:26:39;;;;;;;5.95;2.80;;;1.90;99.90;;;;;;5072988;28;20063;-64
2024/01/19 11:29:20;;;;;;;5.43;2.80;;;2.00;99.90;;;;;;5072026;28;20055;-63
2024/01/19 11:31:48;;;;;;;6.18;2.58;;;2.00;99.90;;;;;;5073265;28;20052;-63
2024/01/19 11:34:41;;;;;;;9.93;3.38;;;2.10;99.90;;;;;;5073247;28;20128;-64
2024/01/19 11:37:08;;;;;;;7.93;3.45;;;2.20;99.90;;;;;;5072934;28;20093;-63
2024/01/19 11:39:42;;;;;;;8.45;3.58;;;2.00;99.90;;;;;;5073962;28;20476;-63
2024/01/19 11:42:10;;;;;;;7.05;3.72;;;2.10;99.90;;;;;;5072849;28;20101;-63
2024/01/19 11:44:45;;;;;;;5.50;3.47;;;2.10;99.90;;;;;;5070535;28;20051;-62
2024/01/19 11:47:41;;;;;;;7.03;3.08;;;2.10;99.90;;;;;;5072890;28;20044;-62
2024/01/19 11:50:09;;;;;;;5.38;3.47;;;2.30;99.90;;;;;;5068482;28;20376;-62
2024/01/19 11:52:38;;;;;;;7.90;3.08;;;2.20;99.90;;;;;;5056175;28;20452;-63
2024/01/19 11:55:26;;;;;;;10.10;3.50;;;2.20;99.90;;;;;;5072003;28;20070;-62
2024/01/19 11:57:55;;;;;;;8.70;2.60;;;2.20;99.90;;;;;;5071912;28;20048;-63
2024/01/19 12:00:22;;;;;;;7.95;2.58;;;2.30;99.90;;;;;;5054291;28;20052;-62
2024/01/19 12:02:54;;;;;;;6.18;2.97;;;2.40;99.90;;;;;;5071402;28;20055;-63
2024/01/19 12:05:22;;;;;;;7.60;2.58;;;2.40;99.90;;;;;;5071986;28;20354;-63
2024/01/19 12:07:48;;;;;;;7.80;2.95;;;2.60;99.90;;;;;;5071363;28;20048;-63
2024/01/19 12:10:16;;;;;;;7.40;3.55;;;2.50;99.90;;;;;;5071687;28;20553;-61
2024/01/19 12:12:42;;;;;;;6.93;3.38;;;2.70;99.90;;;;;;5089067;28;20332;-62
2024/01/19 12:15:10;;;;;;;6.88;3.30;;;2.70;99.90;;;;;;5089391;28;20036;-62
2024/01/19 12:17:40;;;;;;;5.82;3.08;;;2.70;99.90;;;;;;5071856;28;20376;-62
2024/01/19 12:20:17;;;;;;;9.68;3.17;;;2.70;99.90;;;;;;5071177;28;20272;-62
2024/01/19 12:22:45;;;;;;;6.75;3.30;;;2.60;99.90;;;;;;5070604;28;20047;-63
2024/01/19 12:25:19;;;;;;;7.05;2.80;;;2.80;99.90;;;;;;5068415;28;20052;-62
2024/01/19 12:27:48;;;;;;;8.35;2.60;;;2.80;99.90;;;;;;5071014;28;20554;-62
2024/01/19 12:30:16;;;;;;;7.85;3.25;;;2.70;99.90;;;;;;5086909;28;20077;-62
2024/01/19 12:32:43;;;;;;;7.20;3.00;;;2.90;99.90;;;;;;5069510;28;20052;-61
2024/01/19 12:35:11;;;;;;;8.60;3.13;;;3.00;99.90;;;;;;5088865;28;20376;-63
2024/01/19 12:37:38;;;;;;;8.60;3.35;;;2.90;99.90;;;;;;5074343;28;20052;-60
2024/01/19 12:40:18;;;;;;;6.95;3.15;;;3.00;99.90;;;;;;5109844;28;20047;-61
2024/01/19 12:42:45;;;;;;;6.25;2.38;;;2.90;99.90;;;;;;5110427;28;20260;-61
2024/01/19 12:45:12;;;;;;;4.90;2.85;;;3.10;99.90;;;;;;5100849;28;20061;-61
2024/01/19 12:47:46;;;;;;;6.85;2.55;;;3.10;99.90;;;;;;5109285;28;20055;-61
2024/01/19 12:50:13;;;;;;;6.60;3.13;;;3.20;99.90;;;;;;5110241;28;20383;-61
2024/01/19 12:52:39;;;;;;;8.70;2.90;;;3.10;99.90;;;;;;5107587;28;20120;-62
2024/01/19 12:55:07;;;;;;;6.15;2.63;;;3.10;99.90;;;;;;5071216;28;20048;-61
2024/01/19 12:57:33;;;;;;;9.13;2.88;;;3.20;99.90;;;;;;5089428;28;20456;-60
2024/01/19 13:00:18;;;;;;;6.75;2.85;;;3.30;99.90;;;;;;5073847;28;20170;-62
2024/01/19 13:02:44;;;;;;;4.20;2.10;;;3.20;99.90;;;;;;5087916;28;20044;-62
2024/01/19 13:05:21;;;;;;;5.47;2.67;;;3.30;99.90;;;;;;5070354;28;20044;-62
2024/01/19 13:07:59;;;;;;;5.13;2.45;;;3.30;99.90;;;;;;5098997;28;20055;-63
2024/01/19 13:10:25;;;;;;;5.25;2.65;;;3.40;99.90;;;;;;5076276;28;20051;-61